Time;durP1;ratioP1;P1;durP2;ratioP2;P2;SDS_P1;SDS_P2;PMS_P1;PMS_P2;Temp;Humidity;BMP_temperature;BMP_pressure;BME280_temperature;BME280_humidity;BME280_pressure;Samples;Min_cycle;Max_cycle;Signal;HPM_P1;HPM_P2
2023/07/30 00:01:51;;;;;;;2.33;1.70;;;17.10;99.90;;;;;;488433;244;28912;-81
2023/07/30 00:03:52;;;;;;;4.07;1.60;;;17.00;99.90;;;;;;488543;244;28877;-78
2023/07/30 00:05:53;;;;;;;6.13;1.60;;;17.00;99.90;;;;;;488474;244;28901;-80
2023/07/30 00:07:54;;;;;;;1.73;1.63;;;17.00;99.90;;;;;;488509;244;28915;-81
2023/07/30 00:09:56;;;;;;;1.63;1.53;;;17.00;99.90;;;;;;488478;244;29340;-81
2023/07/30 00:11:57;;;;;;;1.70;1.60;;;17.00;99.90;;;;;;488457;244;29357;-79
2023/07/30 00:13:58;;;;;;;1.90;1.60;;;17.00;99.90;;;;;;488492;242;28798;-78
2023/07/30 00:15:59;;;;;;;1.70;1.60;;;17.00;99.90;;;;;;488563;244;28796;-81
2023/07/30 00:18:01;;;;;;;3.73;1.73;;;17.10;99.90;;;;;;488543;244;28940;-82
2023/07/30 00:20:02;;;;;;;1.50;1.30;;;17.10;99.90;;;;;;488178;244;28809;-83
2023/07/30 00:22:03;;;;;;;3.50;2.00;;;17.10;99.90;;;;;;488449;244;28866;-80
2023/07/30 00:24:04;;;;;;;1.80;1.70;;;17.10;99.90;;;;;;488484;244;28846;-80
2023/07/30 00:26:06;;;;;;;2.07;1.40;;;17.10;99.90;;;;;;488460;244;28911;-82
2023/07/30 00:28:07;;;;;;;4.70;2.00;;;17.10;99.90;;;;;;488464;244;28846;-79
2023/07/30 00:30:08;;;;;;;1.90;1.80;;;17.00;99.90;;;;;;488466;244;28910;-79
2023/07/30 00:32:09;;;;;;;2.17;1.73;;;17.10;99.90;;;;;;488569;244;28776;-82
2023/07/30 00:34:11;;;;;;;3.23;1.80;;;17.10;99.90;;;;;;488492;244;29494;-81
2023/07/30 00:36:12;;;;;;;4.73;1.47;;;17.10;99.90;;;;;;488502;244;29318;-80
2023/07/30 00:38:15;;;;;;;1.50;1.40;;;17.10;99.90;;;;;;488431;244;29339;-81
2023/07/30 00:40:14;;;;;;;3.27;1.60;;;17.10;99.90;;;;;;488274;244;28835;-83
2023/07/30 00:42:16;;;;;;;1.80;1.70;;;17.10;99.90;;;;;;488523;244;28759;-81
2023/07/30 00:44:17;;;;;;;2.30;2.10;;;17.20;99.90;;;;;;488458;244;28856;-80
2023/07/30 00:46:18;;;;;;;3.07;1.77;;;17.20;99.90;;;;;;488521;244;28867;-83
2023/07/30 00:48:19;;;;;;;1.80;1.70;;;17.20;99.90;;;;;;488301;244;28917;-83
2023/07/30 00:50:21;;;;;;;3.43;1.87;;;17.20;99.90;;;;;;488533;244;28802;-77
2023/07/30 00:52:22;;;;;;;3.33;1.70;;;17.30;99.90;;;;;;488553;242;28801;-79
2023/07/30 00:54:23;;;;;;;2.17;2.00;;;17.30;99.90;;;;;;488541;244;28909;-83
2023/07/30 00:56:24;;;;;;;2.60;1.90;;;17.20;99.90;;;;;;488590;244;28911;-82
2023/07/30 00:58:26;;;;;;;3.73;2.03;;;17.20;99.90;;;;;;488525;244;29230;-80
2023/07/30 01:00:28;;;;;;;2.30;2.20;;;17.20;99.90;;;;;;488375;244;29745;-79
2023/07/30 01:02:28;;;;;;;1.90;1.80;;;17.20;99.90;;;;;;488484;242;29472;-84
2023/07/30 01:04:29;;;;;;;1.90;1.80;;;17.20;99.90;;;;;;488527;244;28848;-82
2023/07/30 01:06:31;;;;;;;2.90;1.93;;;17.10;99.90;;;;;;488497;244;28868;-84
2023/07/30 01:08:32;;;;;;;2.40;2.20;;;17.20;99.90;;;;;;488552;244;28834;-82
2023/07/30 01:10:33;;;;;;;3.70;1.70;;;17.20;99.90;;;;;;488538;244;28730;-78
2023/07/30 01:12:34;;;;;;;2.10;1.90;;;17.20;99.90;;;;;;488534;244;28920;-81
2023/07/30 01:14:37;;;;;;;3.10;1.90;;;17.20;99.90;;;;;;488495;244;28825;-80
2023/07/30 01:16:37;;;;;;;3.07;2.40;;;17.20;99.90;;;;;;488421;244;28795;-82
2023/07/30 01:18:38;;;;;;;3.77;2.40;;;17.20;99.90;;;;;;488545;244;28919;-82
2023/07/30 01:20:39;;;;;;;6.03;2.83;;;17.20;99.90;;;;;;488480;243;28727;-79
2023/07/30 01:22:41;;;;;;;2.40;2.20;;;17.20;99.90;;;;;;488394;244;28841;-81
2023/07/30 01:24:42;;;;;;;2.33;2.23;;;17.20;99.90;;;;;;488464;244;29408;-79
2023/07/30 01:26:43;;;;;;;2.30;2.20;;;17.30;99.90;;;;;;488449;244;29479;-82
2023/07/30 01:28:44;;;;;;;3.00;2.80;;;17.30;99.90;;;;;;488506;244;28829;-81
2023/07/30 01:30:46;;;;;;;2.73;2.53;;;17.30;99.90;;;;;;488547;244;28722;-82
2023/07/30 01:32:47;;;;;;;2.77;2.47;;;17.30;99.90;;;;;;488502;244;28829;-82
2023/07/30 01:34:48;;;;;;;3.03;2.40;;;17.30;99.90;;;;;;488473;244;28958;-81
2023/07/30 01:36:49;;;;;;;4.40;2.87;;;17.40;99.90;;;;;;488561;242;28833;-80
2023/07/30 01:38:51;;;;;;;3.10;2.80;;;17.40;99.90;;;;;;488473;244;28938;-80
2023/07/30 01:40:52;;;;;;;4.40;2.57;;;17.40;99.90;;;;;;488512;244;28734;-83
2023/07/30 01:42:53;;;;;;;2.63;2.40;;;17.40;99.90;;;;;;488601;244;28957;-80
2023/07/30 01:44:54;;;;;;;2.90;2.70;;;17.40;99.90;;;;;;488537;244;28936;-82
2023/07/30 01:46:56;;;;;;;3.40;3.07;;;17.40;99.90;;;;;;488553;244;28846;-84
2023/07/30 01:48:57;;;;;;;4.60;2.63;;;17.40;99.90;;;;;;488544;244;29414;-81
2023/07/30 01:50:58;;;;;;;2.63;2.43;;;17.50;99.90;;;;;;488530;244;29518;-80
2023/07/30 01:52:59;;;;;;;2.73;2.53;;;17.40;99.90;;;;;;488559;244;29424;-79
2023/07/30 01:55:01;;;;;;;3.40;2.40;;;17.40;99.90;;;;;;488403;244;28797;-80
2023/07/30 01:57:02;;;;;;;3.23;2.90;;;17.40;99.90;;;;;;488582;244;28814;-77
2023/07/30 01:59:03;;;;;;;4.30;3.10;;;17.40;99.90;;;;;;488612;244;28782;-79
2023/07/30 02:01:04;;;;;;;3.17;2.93;;;17.40;99.90;;;;;;488538;244;28767;-81
2023/07/30 02:03:06;;;;;;;3.00;2.80;;;17.40;99.90;;;;;;488480;244;28830;-80
2023/07/30 02:05:07;;;;;;;7.03;2.80;;;17.40;99.90;;;;;;488527;244;28830;-79
2023/07/30 02:07:08;;;;;;;3.50;2.93;;;17.40;99.90;;;;;;488516;244;28900;-84
2023/07/30 02:09:09;;;;;;;4.00;3.70;;;17.40;99.90;;;;;;488517;244;28738;-79
2023/07/30 02:11:11;;;;;;;3.60;3.27;;;17.40;99.90;;;;;;488553;244;28851;-78
2023/07/30 02:13:12;;;;;;;3.80;3.43;;;17.40;99.90;;;;;;488542;244;29398;-78
2023/07/30 02:15:13;;;;;;;4.37;3.80;;;17.40;99.90;;;;;;488534;244;29496;-81
2023/07/30 02:17:14;;;;;;;7.50;4.33;;;17.40;99.90;;;;;;488561;244;29313;-81
2023/07/30 02:19:16;;;;;;;3.93;3.63;;;17.50;99.90;;;;;;488530;244;28764;-84
2023/07/30 02:21:17;;;;;;;3.90;3.60;;;17.50;99.90;;;;;;488496;244;28746;-79
2023/07/30 02:23:18;;;;;;;5.00;4.40;;;17.50;99.90;;;;;;488527;244;28835;-82
2023/07/30 02:25:20;;;;;;;6.70;6.20;;;17.50;99.90;;;;;;488533;244;28816;-80
2023/07/30 02:27:21;;;;;;;5.73;5.23;;;17.50;99.90;;;;;;488518;244;28832;-83
2023/07/30 02:29:22;;;;;;;6.93;5.60;;;17.40;99.90;;;;;;488498;244;28924;-81
2023/07/30 02:31:23;;;;;;;5.17;4.77;;;17.40;99.90;;;;;;488532;244;29400;-83
2023/07/30 02:33:25;;;;;;;5.93;5.43;;;17.40;99.90;;;;;;488563;244;29241;-81
2023/07/30 02:35:26;;;;;;;7.40;5.30;;;17.40;99.90;;;;;;488253;244;28839;-83
2023/07/30 02:37:27;;;;;;;4.67;4.27;;;17.40;99.90;;;;;;488575;244;28733;-81
2023/07/30 02:39:28;;;;;;;5.80;5.30;;;17.40;99.90;;;;;;487341;235;29359;-82
2023/07/30 02:41:30;;;;;;;5.70;5.20;;;17.40;99.90;;;;;;479974;248;29298;-81
2023/07/30 02:43:31;;;;;;;4.80;4.40;;;17.50;99.90;;;;;;472575;251;28809;-83
2023/07/30 02:45:32;;;;;;;7.50;5.67;;;17.50;99.90;;;;;;476498;250;28769;-80
2023/07/30 02:47:33;;;;;;;5.50;5.00;;;17.50;99.90;;;;;;479869;248;28807;-81
2023/07/30 02:49:35;;;;;;;5.20;4.70;;;17.50;99.90;;;;;;479894;244;28721;-79
2023/07/30 02:51:36;;;;;;;5.90;5.30;;;17.50;99.90;;;;;;472711;252;28738;-82
2023/07/30 02:53:37;;;;;;;5.60;4.60;;;17.50;99.90;;;;;;474649;244;28818;-81
2023/07/30 02:55:38;;;;;;;4.83;4.43;;;17.50;99.90;;;;;;481574;248;28821;-81
2023/07/30 02:57:40;;;;;;;5.80;5.30;;;17.50;99.90;;;;;;481525;247;28962;-81
2023/07/30 02:59:41;;;;;;;5.13;4.73;;;17.50;99.90;;;;;;481539;248;28845;-83
2023/07/30 03:01:42;;;;;;;8.03;4.83;;;17.50;99.90;;;;;;481554;248;28920;-81
2023/07/30 03:03:43;;;;;;;5.90;5.30;;;17.50;99.90;;;;;;481575;248;29404;-80
2023/07/30 03:05:45;;;;;;;5.53;4.63;;;17.50;99.90;;;;;;481589;247;29400;-82
2023/07/30 03:07:46;;;;;;;5.30;4.83;;;17.60;99.90;;;;;;481598;247;29301;-83
2023/07/30 03:09:47;;;;;;;5.60;5.10;;;17.60;99.90;;;;;;481529;247;29321;-82
2023/07/30 03:11:48;;;;;;;5.77;5.20;;;17.60;99.90;;;;;;481503;247;28872;-81
2023/07/30 03:13:50;;;;;;;6.17;4.83;;;17.60;99.90;;;;;;481549;247;28903;-81
2023/07/30 03:15:51;;;;;;;5.50;4.70;;;17.60;99.90;;;;;;481561;248;28885;-80
2023/07/30 03:17:52;;;;;;;5.77;5.17;;;17.60;99.90;;;;;;481607;247;29015;-81
2023/07/30 03:19:53;;;;;;;4.87;4.47;;;17.60;99.90;;;;;;481549;247;28823;-83
2023/07/30 03:21:55;;;;;;;5.33;4.63;;;17.60;99.90;;;;;;481565;248;28840;-81
2023/07/30 03:23:56;;;;;;;7.93;6.00;;;17.60;99.90;;;;;;481599;248;28920;-80
2023/07/30 03:25:57;;;;;;;5.60;5.10;;;17.60;99.90;;;;;;484704;238;28928;-79
2023/07/30 03:27:58;;;;;;;5.20;4.70;;;17.60;99.90;;;;;;496476;239;29335;-79
2023/07/30 03:30:00;;;;;;;4.93;4.53;;;17.60;99.90;;;;;;496478;240;29324;-80
2023/07/30 03:32:01;;;;;;;5.90;5.37;;;17.60;99.90;;;;;;496483;240;29461;-80
2023/07/30 03:34:02;;;;;;;9.07;6.13;;;17.50;99.90;;;;;;496336;239;28852;-78
2023/07/30 03:36:04;;;;;;;5.43;4.93;;;17.50;99.90;;;;;;496520;240;28767;-83
2023/07/30 03:38:05;;;;;;;6.33;5.00;;;17.50;99.90;;;;;;496392;240;28886;-79
2023/07/30 03:40:06;;;;;;;5.13;4.73;;;17.50;99.90;;;;;;496459;239;28727;-81
2023/07/30 03:42:07;;;;;;;5.53;5.00;;;17.50;99.90;;;;;;496408;240;28777;-82
2023/07/30 03:44:08;;;;;;;5.43;5.00;;;17.50;99.90;;;;;;496350;240;28759;-81
2023/07/30 03:46:10;;;;;;;11.53;5.70;;;17.60;99.90;;;;;;496419;239;28824;-82
2023/07/30 03:48:11;;;;;;;5.10;4.20;;;17.50;99.90;;;;;;496436;240;28901;-79
2023/07/30 03:50:12;;;;;;;5.63;4.37;;;17.50;99.90;;;;;;496421;240;28753;-82
2023/07/30 03:52:13;;;;;;;6.37;5.20;;;17.50;99.90;;;;;;496465;240;29402;-84
2023/07/30 03:54:15;;;;;;;6.33;5.73;;;17.50;99.90;;;;;;496390;239;30013;-82
2023/07/30 03:56:16;;;;;;;5.67;5.20;;;17.50;99.90;;;;;;496463;240;29221;-79
2023/07/30 03:58:17;;;;;;;5.37;4.90;;;17.50;99.90;;;;;;496422;240;28853;-80
2023/07/30 04:00:18;;;;;;;5.30;4.80;;;17.50;99.90;;;;;;496469;240;28848;-80
2023/07/30 04:02:20;;;;;;;5.90;5.40;;;17.50;99.90;;;;;;496496;240;28848;-78
2023/07/30 04:04:21;;;;;;;5.97;5.40;;;17.50;99.90;;;;;;496389;240;28788;-80
2023/07/30 04:06:22;;;;;;;5.97;5.37;;;17.50;99.90;;;;;;496453;240;28736;-80
2023/07/30 04:08:23;;;;;;;5.43;4.70;;;17.50;99.90;;;;;;496413;239;28782;-80
2023/07/30 04:10:25;;;;;;;5.90;5.40;;;17.50;99.90;;;;;;496467;240;28776;-79
2023/07/30 04:12:26;;;;;;;4.87;4.53;;;17.50;99.90;;;;;;496473;240;28860;-80
2023/07/30 04:14:27;;;;;;;5.83;5.33;;;17.50;99.90;;;;;;496469;240;28843;-79
2023/07/30 04:16:28;;;;;;;4.63;4.20;;;17.50;99.90;;;;;;496488;239;28757;-80
2023/07/30 04:18:30;;;;;;;5.97;5.47;;;17.50;99.90;;;;;;496405;239;29431;-81
2023/07/30 04:20:31;;;;;;;5.20;4.80;;;17.50;99.90;;;;;;496445;237;29232;-81
2023/07/30 04:22:32;;;;;;;5.77;5.27;;;17.40;99.90;;;;;;496453;240;28836;-80
2023/07/30 04:24:33;;;;;;;5.73;5.33;;;17.40;99.90;;;;;;496320;240;28808;-81
2023/07/30 04:26:35;;;;;;;7.20;5.53;;;17.50;99.90;;;;;;496443;239;28769;-80
2023/07/30 04:28:36;;;;;;;6.20;5.70;;;17.50;99.90;;;;;;496365;240;28835;-80
2023/07/30 04:30:37;;;;;;;7.43;5.40;;;17.50;99.90;;;;;;496370;240;28867;-79
2023/07/30 04:32:38;;;;;;;5.10;4.60;;;17.50;99.90;;;;;;496568;239;28819;-79
2023/07/30 04:34:40;;;;;;;5.63;5.10;;;17.40;99.90;;;;;;496490;239;29177;-81
2023/07/30 04:36:41;;;;;;;4.97;4.57;;;17.40;99.90;;;;;;496370;240;28812;-80
2023/07/30 04:38:42;;;;;;;7.53;5.97;;;17.40;99.90;;;;;;496427;240;28781;-82
2023/07/30 04:40:43;;;;;;;5.00;4.60;;;17.40;99.90;;;;;;496472;240;29361;-79
2023/07/30 04:42:45;;;;;;;18.73;5.70;;;17.40;99.90;;;;;;496513;240;29327;-80
2023/07/30 04:44:46;;;;;;;7.63;6.50;;;17.40;99.90;;;;;;496297;240;29316;-80
2023/07/30 04:46:47;;;;;;;6.77;6.07;;;17.40;99.90;;;;;;496378;239;29246;-79
2023/07/30 04:48:48;;;;;;;5.73;5.23;;;17.40;99.90;;;;;;496546;240;28841;-81
2023/07/30 04:50:50;;;;;;;8.23;5.90;;;17.50;99.90;;;;;;496483;240;28883;-82
2023/07/30 04:52:51;;;;;;;6.47;5.80;;;17.60;99.90;;;;;;496535;239;28892;-80
2023/07/30 04:54:52;;;;;;;6.13;5.53;;;17.70;99.90;;;;;;496446;240;28856;-81
2023/07/30 04:56:53;;;;;;;6.63;5.60;;;17.70;99.90;;;;;;496472;240;28765;-82
2023/07/30 04:58:55;;;;;;;5.07;4.60;;;17.70;99.90;;;;;;496332;240;28778;-80
2023/07/30 05:00:56;;;;;;;5.47;4.83;;;17.70;99.90;;;;;;496358;240;28828;-84
2023/07/30 05:02:57;;;;;;;5.13;4.73;;;17.70;99.90;;;;;;496406;240;28772;-83
2023/07/30 05:04:58;;;;;;;6.60;4.50;;;17.60;99.90;;;;;;496486;240;28777;-84
2023/07/30 05:07:00;;;;;;;6.63;4.80;;;17.60;99.90;;;;;;496499;240;29349;-82
2023/07/30 05:09:01;;;;;;;5.67;4.67;;;17.60;99.90;;;;;;496397;239;29318;-83
2023/07/30 05:11:02;;;;;;;5.10;4.60;;;17.70;99.90;;;;;;496430;240;31158;-82
2023/07/30 05:13:03;;;;;;;4.90;4.50;;;17.80;99.90;;;;;;496432;240;28848;-80
2023/07/30 05:15:05;;;;;;;4.70;4.30;;;18.00;99.90;;;;;;496499;239;28738;-81
2023/07/30 05:17:06;;;;;;;4.93;4.53;;;18.10;99.90;;;;;;496477;240;28826;-81
2023/07/30 05:19:08;;;;;;;5.63;5.03;;;18.10;99.90;;;;;;496437;240;28768;-80
2023/07/30 05:21:08;;;;;;;4.83;4.43;;;18.10;99.90;;;;;;496457;240;28777;-82
2023/07/30 05:23:10;;;;;;;4.90;4.40;;;18.10;99.90;;;;;;496449;240;28867;-81
2023/07/30 05:25:11;;;;;;;4.40;4.10;;;18.20;99.90;;;;;;496549;239;28875;-82
2023/07/30 05:27:12;;;;;;;4.80;4.40;;;18.20;99.90;;;;;;496424;240;28769;-82
2023/07/30 05:29:13;;;;;;;4.70;4.30;;;18.10;99.90;;;;;;496540;240;28765;-81
2023/07/30 05:31:15;;;;;;;5.30;4.87;;;18.20;99.90;;;;;;496511;239;29500;-82
2023/07/30 05:33:16;;;;;;;5.77;5.27;;;18.20;99.90;;;;;;496432;239;29247;-82
2023/07/30 05:35:18;;;;;;;6.47;5.97;;;18.30;99.90;;;;;;496243;239;29322;-79
2023/07/30 05:37:18;;;;;;;5.77;5.27;;;18.40;99.90;;;;;;496420;240;28770;-85
2023/07/30 05:39:20;;;;;;;5.30;4.90;;;18.40;99.90;;;;;;496385;240;28825;-82
2023/07/30 05:41:21;;;;;;;6.53;5.60;;;18.50;99.90;;;;;;496467;240;28779;-82
2023/07/30 05:43:22;;;;;;;5.17;4.77;;;18.50;99.90;;;;;;496475;239;28834;-83
2023/07/30 05:45:23;;;;;;;5.60;4.77;;;18.50;99.90;;;;;;496422;240;28728;-81
2023/07/30 05:47:25;;;;;;;8.23;4.70;;;18.40;99.90;;;;;;496464;240;28814;-84
2023/07/30 05:49:26;;;;;;;4.90;4.50;;;18.30;99.90;;;;;;496494;240;28752;-81
2023/07/30 05:51:27;;;;;;;4.90;4.40;;;18.30;99.90;;;;;;496515;239;28784;-82
2023/07/30 05:53:28;;;;;;;5.20;4.80;;;18.30;99.90;;;;;;496489;240;28846;-83
2023/07/30 05:55:30;;;;;;;4.60;3.87;;;18.30;99.90;;;;;;496397;238;29453;-81
2023/07/30 05:57:31;;;;;;;4.53;4.07;;;18.40;99.90;;;;;;496381;240;30115;-82
2023/07/30 05:59:32;;;;;;;5.10;4.27;;;18.50;99.90;;;;;;496421;240;29222;-81
2023/07/30 06:01:33;;;;;;;6.93;4.40;;;18.50;99.90;;;;;;496482;240;29324;-82
2023/07/30 06:03:35;;;;;;;7.87;4.50;;;18.60;99.90;;;;;;496521;240;28736;-82
2023/07/30 06:05:36;;;;;;;8.70;4.90;;;18.50;99.90;;;;;;496387;239;28846;-79
2023/07/30 06:07:37;;;;;;;5.20;4.47;;;18.30;99.90;;;;;;496455;240;28770;-81
2023/07/30 06:09:38;;;;;;;4.77;4.37;;;18.30;99.90;;;;;;496271;240;28829;-82
2023/07/30 06:11:40;;;;;;;4.90;4.40;;;18.30;99.90;;;;;;496478;240;28916;-82
2023/07/30 06:13:41;;;;;;;4.90;4.47;;;18.30;99.90;;;;;;496488;240;28741;-83
2023/07/30 06:15:42;;;;;;;6.03;4.27;;;18.40;99.90;;;;;;496413;240;28808;-84
2023/07/30 06:17:43;;;;;;;6.83;4.37;;;18.50;99.90;;;;;;496496;240;28769;-82
2023/07/30 06:19:45;;;;;;;5.50;5.00;;;18.60;99.90;;;;;;496417;240;28834;-85
2023/07/30 06:21:46;;;;;;;6.63;5.53;;;18.60;99.90;;;;;;496398;240;29237;-80
2023/07/30 06:23:47;;;;;;;6.33;5.73;;;18.60;99.90;;;;;;496496;240;29294;-81
2023/07/30 06:25:48;;;;;;;5.47;4.97;;;18.60;99.90;;;;;;496503;240;28865;-82
2023/07/30 06:27:51;;;;;;;7.10;5.40;;;18.60;99.90;;;;;;496401;240;28689;-82
2023/07/30 06:29:51;;;;;;;5.90;5.50;;;18.60;99.90;;;;;;496452;240;28845;-84
2023/07/30 06:31:52;;;;;;;5.93;5.03;;;18.50;99.90;;;;;;496460;240;28822;-81
2023/07/30 06:33:53;;;;;;;4.83;4.33;;;18.30;99.90;;;;;;496527;240;28783;-83
2023/07/30 06:35:55;;;;;;;4.57;4.20;;;18.30;99.90;;;;;;496478;239;28762;-81
2023/07/30 06:37:56;;;;;;;4.37;3.97;;;18.30;99.90;;;;;;496512;240;28826;-80
2023/07/30 06:39:57;;;;;;;4.50;4.20;;;18.40;99.90;;;;;;496516;240;28757;-83
2023/07/30 06:41:59;;;;;;;5.80;4.13;;;18.30;99.90;;;;;;496087;236;28797;-80
2023/07/30 06:44:00;;;;;;;4.20;3.80;;;18.30;99.90;;;;;;496515;239;28849;-80
2023/07/30 06:46:01;;;;;;;4.80;4.40;;;18.20;99.90;;;;;;496308;239;29685;-82
2023/07/30 06:48:02;;;;;;;3.70;3.40;;;18.20;99.90;;;;;;496494;240;29315;-79
2023/07/30 06:50:04;;;;;;;6.57;3.63;;;18.10;99.90;;;;;;496541;240;29316;-83
2023/07/30 06:52:05;;;;;;;3.37;3.17;;;18.10;99.90;;;;;;496416;239;28729;-82
2023/07/30 06:54:06;;;;;;;6.87;4.37;;;18.10;99.90;;;;;;496414;239;28801;-83
2023/07/30 06:56:07;;;;;;;3.37;3.07;;;18.20;99.90;;;;;;496392;239;28814;-82
2023/07/30 06:58:09;;;;;;;3.87;3.57;;;18.30;99.90;;;;;;496509;240;28739;-80
2023/07/30 07:00:10;;;;;;;7.43;2.87;;;18.40;99.90;;;;;;496489;240;28824;-80
2023/07/30 07:02:11;;;;;;;4.90;3.40;;;18.40;99.90;;;;;;496450;240;28837;-79
2023/07/30 07:04:12;;;;;;;3.20;2.93;;;18.40;99.90;;;;;;496441;239;28825;-82
2023/07/30 07:06:14;;;;;;;3.37;3.10;;;18.20;99.90;;;;;;496152;240;28780;-81
2023/07/30 07:08:15;;;;;;;3.73;3.33;;;18.40;99.90;;;;;;496537;240;28765;-79
2023/07/30 07:10:16;;;;;;;3.77;3.17;;;18.50;99.90;;;;;;496392;238;29324;-82
2023/07/30 07:12:17;;;;;;;4.33;3.03;;;18.60;99.90;;;;;;496426;240;29333;-82
2023/07/30 07:14:19;;;;;;;5.57;3.30;;;18.60;99.90;;;;;;496448;239;29318;-80
2023/07/30 07:16:20;;;;;;;3.83;3.37;;;18.60;99.90;;;;;;492150;236;28879;-81
2023/07/30 07:18:21;;;;;;;5.10;2.73;;;18.70;99.90;;;;;;484212;246;28699;-82
2023/07/30 07:20:22;;;;;;;3.30;3.00;;;18.70;99.90;;;;;;484309;246;28813;-80
2023/07/30 07:22:24;;;;;;;4.77;2.80;;;18.80;99.90;;;;;;484312;246;28733;-80
2023/07/30 07:24:25;;;;;;;3.10;2.73;;;19.00;99.90;;;;;;484328;246;28772;-79
2023/07/30 07:26:26;;;;;;;4.70;2.90;;;19.10;99.90;;;;;;484094;246;28785;-81
2023/07/30 07:28:27;;;;;;;9.47;3.17;;;19.10;99.90;;;;;;484292;246;28758;-81
2023/07/30 07:30:29;;;;;;;5.17;2.87;;;19.10;99.90;;;;;;484216;246;28693;-81
2023/07/30 07:32:30;;;;;;;7.27;3.23;;;19.10;99.90;;;;;;484211;246;28718;-83
2023/07/30 07:34:31;;;;;;;3.10;2.50;;;19.10;99.90;;;;;;484102;246;29313;-81
2023/07/30 07:36:32;;;;;;;3.40;2.80;;;18.90;99.90;;;;;;484326;246;29265;-82
2023/07/30 07:38:34;;;;;;;4.40;3.10;;;18.80;99.90;;;;;;484190;246;29193;-80
2023/07/30 07:40:35;;;;;;;2.93;2.73;;;18.70;99.90;;;;;;484268;246;28750;-83
2023/07/30 07:42:36;;;;;;;3.93;2.77;;;18.70;99.90;;;;;;484290;246;28679;-82
2023/07/30 07:44:37;;;;;;;4.47;2.60;;;18.70;99.90;;;;;;484297;246;28683;-80
2023/07/30 07:46:39;;;;;;;4.60;3.10;;;18.60;99.90;;;;;;484293;246;28771;-80
2023/07/30 07:48:40;;;;;;;3.77;2.63;;;18.60;99.90;;;;;;484199;246;28775;-82
2023/07/30 07:50:41;;;;;;;3.43;2.80;;;18.60;99.90;;;;;;484244;246;28680;-81
2023/07/30 07:52:42;;;;;;;3.20;2.90;;;18.70;99.90;;;;;;484279;246;28751;-82
2023/07/30 07:54:44;;;;;;;3.30;2.60;;;18.60;99.90;;;;;;484231;246;28774;-81
2023/07/30 07:56:45;;;;;;;2.80;2.60;;;18.70;99.90;;;;;;484214;246;28719;-83
2023/07/30 07:58:46;;;;;;;2.93;2.53;;;18.80;99.90;;;;;;484265;246;28698;-81
2023/07/30 08:00:47;;;;;;;5.97;2.80;;;18.70;99.90;;;;;;484298;246;29165;-83
2023/07/30 08:02:49;;;;;;;2.83;2.63;;;18.60;99.90;;;;;;484195;246;30032;-82
2023/07/30 08:04:50;;;;;;;7.53;2.70;;;18.70;99.90;;;;;;484213;246;29219;-81
2023/07/30 08:06:51;;;;;;;4.10;3.23;;;18.90;99.90;;;;;;484205;246;28802;-84
2023/07/30 08:08:52;;;;;;;3.43;2.23;;;19.00;99.90;;;;;;484203;246;28695;-82
2023/07/30 08:10:54;;;;;;;5.83;2.80;;;19.20;99.90;;;;;;484254;246;28794;-81
2023/07/30 08:12:55;;;;;;;3.50;3.03;;;19.30;99.90;;;;;;484220;246;28822;-82
2023/07/30 08:14:56;;;;;;;3.17;2.67;;;19.60;99.90;;;;;;484105;246;28773;-81
2023/07/30 08:16:57;;;;;;;3.13;2.83;;;19.90;99.90;;;;;;484188;246;28801;-82
2023/07/30 08:18:59;;;;;;;4.43;3.10;;;19.90;99.90;;;;;;484113;246;28707;-83
2023/07/30 08:21:00;;;;;;;4.63;2.57;;;19.70;99.90;;;;;;484114;246;28757;-82
2023/07/30 08:23:01;;;;;;;3.13;2.37;;;19.50;99.90;;;;;;484105;246;28814;-81
2023/07/30 08:25:03;;;;;;;7.70;3.13;;;19.40;99.90;;;;;;484101;246;29316;-81
2023/07/30 08:27:04;;;;;;;2.63;2.43;;;19.40;99.90;;;;;;484230;246;29430;-82
2023/07/30 08:29:06;;;;;;;5.80;2.90;;;19.40;99.90;;;;;;484125;246;29157;-83
2023/07/30 08:31:06;;;;;;;3.00;2.50;;;19.90;99.90;;;;;;484059;246;28715;-82
2023/07/30 08:33:07;;;;;;;3.33;2.77;;;20.00;99.90;;;;;;483962;246;28699;-80
2023/07/30 08:35:09;;;;;;;3.63;2.60;;;20.10;99.90;;;;;;484083;246;28778;-83
2023/07/30 08:37:10;;;;;;;7.40;2.40;;;20.10;99.90;;;;;;484035;246;28707;-81
2023/07/30 08:39:11;;;;;;;3.20;2.33;;;20.00;99.90;;;;;;483995;246;28769;-80
2023/07/30 08:41:12;;;;;;;2.57;2.37;;;19.70;99.90;;;;;;484052;246;28728;-82
2023/07/30 08:43:14;;;;;;;2.67;2.47;;;19.70;99.90;;;;;;484043;246;28830;-83
2023/07/30 08:45:15;;;;;;;2.33;2.23;;;19.80;99.90;;;;;;483974;246;28813;-80
2023/07/30 08:47:16;;;;;;;3.40;2.63;;;19.70;99.90;;;;;;483983;246;28776;-82
2023/07/30 08:49:17;;;;;;;4.77;2.33;;;19.70;99.90;;;;;;484022;246;29219;-82
2023/07/30 08:51:19;;;;;;;2.47;2.17;;;19.70;99.90;;;;;;483919;246;29926;-84
2023/07/30 08:53:20;;;;;;;4.10;2.27;;;19.70;99.90;;;;;;483888;246;29239;-84
2023/07/30 08:55:21;;;;;;;2.57;2.37;;;19.60;99.90;;;;;;483933;246;28719;-81
2023/07/30 08:57:22;;;;;;;3.30;2.17;;;19.60;99.90;;;;;;483802;246;28694;-84
2023/07/30 08:59:24;;;;;;;2.57;2.37;;;19.80;99.90;;;;;;483868;246;28766;-82
2023/07/30 09:01:25;;;;;;;2.57;2.20;;;19.60;99.90;;;;;;483861;246;28770;-84
2023/07/30 09:03:26;;;;;;;3.13;1.70;;;19.50;99.90;;;;;;483742;246;28704;-83
2023/07/30 09:05:31;;;;;;;4.00;2.20;;;19.60;99.90;;;;;;483780;246;28832;-83
2023/07/30 09:07:32;;;;;;;2.70;1.90;;;19.80;99.90;;;;;;483683;246;29265;-84
2023/07/30 09:09:33;;;;;;;3.10;1.90;;;20.00;99.90;;;;;;483586;246;28811;-85
2023/07/30 09:11:34;;;;;;;2.83;1.73;;;19.80;99.90;;;;;;483687;246;28757;-83
2023/07/30 09:13:36;;;;;;;2.57;1.73;;;19.70;99.90;;;;;;483730;246;28706;-81
2023/07/30 09:15:40;;;;;;;4.03;1.87;;;19.40;99.90;;;;;;483801;246;28799;-80
2023/07/30 09:17:41;;;;;;;1.70;1.60;;;19.40;99.90;;;;;;483813;246;29197;-84
2023/07/30 09:19:42;;;;;;;2.20;2.00;;;19.40;99.90;;;;;;483813;246;28709;-81
2023/07/30 09:21:44;;;;;;;2.93;2.37;;;19.20;99.90;;;;;;483880;246;28801;-82
2023/07/30 09:23:45;;;;;;;2.40;2.00;;;19.10;99.90;;;;;;483775;246;28705;-84
2023/07/30 09:25:46;;;;;;;2.17;1.97;;;19.10;99.90;;;;;;483773;246;28784;-82
2023/07/30 09:27:47;;;;;;;2.10;1.90;;;19.30;99.90;;;;;;483741;246;28717;-83
2023/07/30 09:29:49;;;;;;;2.13;1.93;;;19.50;99.90;;;;;;483717;246;28715;-82
2023/07/30 09:31:54;;;;;;;2.60;2.10;;;19.30;99.90;;;;;;483805;246;28701;-83
2023/07/30 09:33:51;;;;;;;2.60;2.00;;;19.00;99.90;;;;;;483527;246;28681;-85
2023/07/30 09:35:53;;;;;;;2.37;2.17;;;18.70;99.90;;;;;;482312;246;36363;-82
2023/07/30 09:37:54;;;;;;;4.43;2.43;;;18.40;99.90;;;;;;483574;246;30270;-83
2023/07/30 09:39:55;;;;;;;4.43;2.50;;;18.40;99.90;;;;;;483581;246;29155;-82
2023/07/30 09:41:56;;;;;;;2.40;2.20;;;18.40;99.90;;;;;;483545;246;29237;-81
2023/07/30 09:43:57;;;;;;;3.43;2.20;;;18.50;99.90;;;;;;483610;246;28775;-85
2023/07/30 09:45:59;;;;;;;4.33;2.20;;;18.30;99.90;;;;;;483670;246;28811;-84
2023/07/30 09:48:00;;;;;;;3.57;2.17;;;18.30;99.90;;;;;;483806;246;28775;-84
2023/07/30 09:50:01;;;;;;;2.00;1.73;;;18.30;99.90;;;;;;483826;246;28734;-81
2023/07/30 09:52:02;;;;;;;3.03;2.03;;;18.50;99.90;;;;;;483739;246;28781;-83
2023/07/30 09:54:04;;;;;;;3.20;2.03;;;18.40;99.90;;;;;;483691;246;28785;-81
2023/07/30 09:56:07;;;;;;;4.37;2.13;;;18.40;99.90;;;;;;483695;246;28810;-85
2023/07/30 09:58:07;;;;;;;4.20;2.33;;;18.60;99.90;;;;;;483537;246;28699;-84
2023/07/30 10:00:11;;;;;;;2.00;1.80;;;18.60;99.90;;;;;;483832;246;28776;-82
2023/07/30 10:02:09;;;;;;;2.80;1.90;;;18.90;99.90;;;;;;483652;246;28702;-80
2023/07/30 10:04:10;;;;;;;3.73;1.90;;;19.20;99.90;;;;;;483774;246;29392;-81
2023/07/30 10:06:12;;;;;;;2.30;1.70;;;19.20;99.90;;;;;;483778;246;29347;-82
2023/07/30 10:08:12;;;;;;;4.03;1.80;;;19.20;99.90;;;;;;483822;246;29219;-84
2023/07/30 10:10:14;;;;;;;1.73;1.63;;;19.30;99.90;;;;;;483804;246;28738;-83
2023/07/30 10:12:15;;;;;;;3.10;2.20;;;19.30;99.90;;;;;;483781;246;28737;-82
2023/07/30 10:14:16;;;;;;;2.60;2.10;;;19.30;99.90;;;;;;483688;246;28702;-83
2023/07/30 10:16:17;;;;;;;2.83;1.80;;;19.30;99.90;;;;;;483770;246;28807;-82
2023/07/30 10:18:20;;;;;;;2.47;1.90;;;19.20;99.90;;;;;;483581;246;28741;-83
2023/07/30 10:20:20;;;;;;;5.20;2.30;;;19.20;99.90;;;;;;483640;246;28787;-84
2023/07/30 10:22:21;;;;;;;3.50;1.80;;;19.30;99.90;;;;;;483700;246;28767;-82
2023/07/30 10:24:22;;;;;;;4.13;1.90;;;19.40;99.90;;;;;;483693;246;28711;-83
2023/07/30 10:26:24;;;;;;;1.93;1.57;;;19.30;99.90;;;;;;483450;246;28813;-83
2023/07/30 10:28:25;;;;;;;3.53;2.10;;;19.30;99.90;;;;;;483598;246;29240;-83
2023/07/30 10:30:26;;;;;;;5.50;1.87;;;19.30;99.90;;;;;;483513;246;29163;-82
2023/07/30 10:32:27;;;;;;;5.07;2.10;;;19.40;99.90;;;;;;483516;246;29288;-81